Hauptseite
METAR-TAF:

METAR-TAF

Flughäfen :

Flughafen Matsumoto

Matsumoto, Japan

Breite: 36-10N, Länge: 137-56E, Höhe: 668 m

Beobachtung

Neuester Wetterbericht von vor 6 Stunden und 18 Minuten, um 09:00 UTC
Wind 11 kt aus Nord, variierte zwischen Nordwest und Nord/Nordost
Temperatur 17°C
Luftfeuchtigkeit 55%
Luftdruck 1016 hPa
Sichtweite 10 km oder mehr
Leicht bewölkt in der Höhe von 5000 ft

METAR: RJAF 250900Z 35011KT 320V030 9999 FEW050 17/08 Q1016

Zeit: 00:18 (15:18 UTC)


TAF: fehlend

Wetterbeobachtungen und Prognosen von mehr als 4000 Flughäfen (METAR und TAF Bericht).

Die verfügbaren Stationen werden durch gelbe und rote Markierungen auf der Karte dargestellt.

Führen Sie die Maus auf sie, um den Namen der Station zu sehen.

Darauf klicken, um die Beobachtung von Wetterbeobachtungen und Prognosen zu sehen.

Um die Karte zu ändern : klicken Sie auf den grünen Tasten mit einem schwarzen Kreuz Zum Vergrößern, auf den grünen Button mit einem Gedankenstrich zu verkleinern, oder auf die grünen Pfeile für benachbarte Karten.


METAR-TAF: